Time;durP1;ratioP1;P1;durP2;ratioP2;P2;SDS_P1;SDS_P2;PMS_P1;PMS_P2;Temp;Humidity;BMP_temperature;BMP_pressure;BME280_temperature;BME280_humidity;BME280_pressure;Samples;Min_cycle;Max_cycle;Signal;HPM_P1;HPM_P2
2022/05/10 00:00:16;;;;;;;24.80;7.75;;;;;;;;;;4982367;28;20041;-86
2022/05/10 00:02:43;;;;;;;19.65;8.32;;;;;;;;;;4965629;28;20031;-86
2022/05/10 00:05:09;;;;;;;15.40;6.88;;;;;;;;;;4969141;28;20529;-85
2022/05/10 00:07:37;;;;;;;19.08;7.60;;;;;;;;;;4969127;28;20101;-86
2022/05/10 00:10:05;;;;;;;24.58;8.93;;;;;;;;;;4965815;28;20038;-86
2022/05/10 00:12:31;;;;;;;19.33;8.30;;;;;;;;;;4975288;28;20065;-86
2022/05/10 00:14:57;;;;;;;19.25;7.28;;;;;;;;;;4980049;28;20105;-86
2022/05/10 00:17:29;;;;;;;26.45;7.80;;;;;;;;;;4981038;28;20045;-86
2022/05/10 00:19:55;;;;;;;14.45;6.63;;;;;;;;;;4961904;28;20180;-86
2022/05/10 00:22:21;;;;;;;18.02;7.35;;;;;;;;;;4962787;28;20038;-86
2022/05/10 00:24:47;;;;;;;23.20;8.60;;;;;;;;;;4979986;28;20018;-86
2022/05/10 00:27:13;;;;;;;25.13;8.52;;;;;;;;;;4982439;28;20078;-87
2022/05/10 00:29:39;;;;;;;18.77;7.40;;;;;;;;;;4966209;28;20042;-86
2022/05/10 00:32:06;;;;;;;19.83;8.45;;;;;;;;;;4960939;28;20093;-86
2022/05/10 00:34:32;;;;;;;23.40;9.40;;;;;;;;;;4960150;28;20026;-87
2022/05/10 00:36:58;;;;;;;16.80;8.07;;;;;;;;;;4956352;28;20023;-86
2022/05/10 00:39:24;;;;;;;16.90;7.68;;;;;;;;;;4969230;28;20026;-87
2022/05/10 00:41:56;;;;;;;17.75;7.20;;;;;;;;;;4966223;28;20037;-86
2022/05/10 00:44:49;;;;;;;16.65;6.57;;;;;;;;;;4977762;28;20617;-87
2022/05/10 00:47:18;;;;;;;19.52;6.82;;;;;;;;;;4963334;28;20101;-87
2022/05/10 00:49:53;;;;;;;24.90;6.90;;;;;;;;;;4965063;28;20027;-87
2022/05/10 00:52:24;;;;;;;21.50;6.97;;;;;;;;;;4960797;28;20564;-87
2022/05/10 00:55:01;;;;;;;17.02;6.25;;;;;;;;;;4966329;28;20058;-87
2022/05/10 00:57:46;;;;;;;15.93;6.07;;;;;;;;;;4959984;28;20077;-86
2022/05/10 01:00:14;;;;;;;16.63;6.30;;;;;;;;;;4977931;28;20049;-87
2022/05/10 01:02:40;;;;;;;21.05;6.05;;;;;;;;;;4977612;28;20030;-87
2022/05/10 01:05:09;;;;;;;23.02;6.43;;;;;;;;;;4958343;28;20038;-87
2022/05/10 01:07:38;;;;;;;20.25;6.88;;;;;;;;;;4962263;28;20030;-87
2022/05/10 01:10:11;;;;;;;25.38;8.23;;;;;;;;;;4975080;28;20023;-86
2022/05/10 01:12:43;;;;;;;24.92;7.90;;;;;;;;;;4976848;28;20045;-87
2022/05/10 01:15:15;;;;;;;17.83;7.82;;;;;;;;;;4958948;28;20034;-87
2022/05/10 01:17:41;;;;;;;19.42;7.15;;;;;;;;;;4961857;28;20486;-87
2022/05/10 01:20:09;;;;;;;22.42;7.00;;;;;;;;;;4964659;28;20026;-87
2022/05/10 01:22:35;;;;;;;17.83;6.65;;;;;;;;;;4964604;28;20042;-87
2022/05/10 01:25:01;;;;;;;20.00;7.60;;;;;;;;;;4965403;28;20035;-87
2022/05/10 01:27:36;;;;;;;14.35;7.18;;;;;;;;;;4965165;28;20034;-87
2022/05/10 01:30:02;;;;;;;18.58;6.43;;;;;;;;;;4987693;28;20101;-87
2022/05/10 01:35:24;;;;;;;18.40;7.53;;;;;;;;;;4982970;28;20057;-86
2022/05/10 01:37:52;;;;;;;14.35;6.50;;;;;;;;;;4980855;28;20030;-86
2022/05/10 01:40:23;;;;;;;18.63;6.82;;;;;;;;;;4959274;28;20100;-86
2022/05/10 01:42:58;;;;;;;18.55;8.48;;;;;;;;;;4978693;28;20057;-86
2022/05/10 01:45:33;;;;;;;20.88;7.85;;;;;;;;;;4967498;28;20045;-86
2022/05/10 01:48:00;;;;;;;16.20;7.67;;;;;;;;;;4959129;28;20113;-86
2022/05/10 01:50:41;;;;;;;17.05;6.57;;;;;;;;;;4963683;28;20031;-86
2022/05/10 01:53:30;;;;;;;20.15;7.53;;;;;;;;;;4978679;28;20038;-86
2022/05/10 01:56:11;;;;;;;21.42;8.63;;;;;;;;;;4948189;28;20059;-86
2022/05/10 01:58:38;;;;;;;24.15;6.80;;;;;;;;;;4957681;28;20035;-86
2022/05/10 02:01:05;;;;;;;15.75;6.68;;;;;;;;;;4951851;28;20070;-86
2022/05/10 02:03:35;;;;;;;24.25;6.65;;;;;;;;;;4958308;28;20046;-86
2022/05/10 02:06:16;;;;;;;15.75;6.68;;;;;;;;;;4944532;28;20027;-86
2022/05/10 02:08:55;;;;;;;17.88;7.32;;;;;;;;;;4947440;28;20406;-86
2022/05/10 02:11:21;;;;;;;19.17;6.82;;;;;;;;;;4958873;28;20554;-86
2022/05/10 02:13:58;;;;;;;17.67;6.00;;;;;;;;;;4939796;28;20045;-86
2022/05/10 02:16:27;;;;;;;17.25;6.43;;;;;;;;;;4962442;28;20066;-86
2022/05/10 02:19:07;;;;;;;16.92;6.53;;;;;;;;;;4958275;28;20038;-86
2022/05/10 02:21:38;;;;;;;11.57;5.82;;;;;;;;;;4957465;28;20038;-86
2022/05/10 02:24:08;;;;;;;15.23;6.28;;;;;;;;;;4945540;28;20777;-85
2022/05/10 02:26:45;;;;;;;14.10;5.53;;;;;;;;;;4964431;28;20114;-86
2022/05/10 02:29:32;;;;;;;16.48;5.20;;;;;;;;;;4944611;28;20042;-86
2022/05/10 02:34:48;;;;;;;17.20;6.13;;;;;;;;;;4960786;28;20050;-86
2022/05/10 02:37:14;;;;;;;16.70;5.57;;;;;;;;;;4959880;28;20038;-85
2022/05/10 02:39:40;;;;;;;14.48;6.13;;;;;;;;;;4943708;28;20106;-86
2022/05/10 02:42:09;;;;;;;18.67;5.93;;;;;;;;;;4960714;28;20064;-87
2022/05/10 02:44:35;;;;;;;15.07;5.97;;;;;;;;;;4960188;28;20038;-86
2022/05/10 02:47:01;;;;;;;14.32;6.28;;;;;;;;;;4947072;28;20027;-87
2022/05/10 02:49:28;;;;;;;11.38;4.97;;;;;;;;;;4946642;28;20071;-87
2022/05/10 02:51:55;;;;;;;15.90;6.13;;;;;;;;;;4960105;28;20042;-86
2022/05/10 02:54:21;;;;;;;13.13;6.07;;;;;;;;;;4952086;28;20062;-87
2022/05/10 02:56:48;;;;;;;13.20;6.15;;;;;;;;;;4966004;28;20039;-87
2022/05/10 02:59:14;;;;;;;17.60;6.47;;;;;;;;;;4980002;28;20030;-86
2022/05/10 03:01:46;;;;;;;16.38;6.75;;;;;;;;;;4961153;28;20038;-87
2022/05/10 03:04:13;;;;;;;17.45;6.82;;;;;;;;;;4977970;28;20062;-86
2022/05/10 03:06:40;;;;;;;13.30;6.68;;;;;;;;;;4963240;28;20031;-86
2022/05/10 03:09:06;;;;;;;10.73;6.35;;;;;;;;;;4966883;28;20042;-86
2022/05/10 03:11:33;;;;;;;19.48;6.05;;;;;;;;;;4983324;28;20026;-86
2022/05/10 03:13:59;;;;;;;16.58;6.80;;;;;;;;;;4983736;28;20038;-86
2022/05/10 03:16:25;;;;;;;19.67;6.40;;;;;;;;;;4967167;28;20034;-86
2022/05/10 03:18:52;;;;;;;15.45;6.15;;;;;;;;;;4965725;28;20434;-86
2022/05/10 03:21:18;;;;;;;23.55;6.95;;;;;;;;;;4970582;28;20534;-86
2022/05/10 03:23:44;;;;;;;19.15;6.72;;;;;;;;;;4968589;28;20034;-86
2022/05/10 03:26:19;;;;;;;21.05;6.75;;;;;;;;;;4986250;28;20026;-86
2022/05/10 03:28:45;;;;;;;16.10;6.68;;;;;;;;;;4985304;28;20129;-86
2022/05/10 03:31:12;;;;;;;23.77;7.15;;;;;;;;;;4982975;28;20102;-86
2022/05/10 03:33:38;;;;;;;21.48;7.30;;;;;;;;;;4969005;28;20738;-86
2022/05/10 03:36:04;;;;;;;17.50;6.97;;;;;;;;;;4983387;28;20126;-86
2022/05/10 03:38:30;;;;;;;12.00;6.05;;;;;;;;;;4969954;28;20497;-86
2022/05/10 03:40:56;;;;;;;17.73;6.32;;;;;;;;;;4962684;28;20046;-86
2022/05/10 03:43:22;;;;;;;17.83;7.07;;;;;;;;;;4967089;28;20612;-86
2022/05/10 03:45:48;;;;;;;14.35;6.47;;;;;;;;;;4968305;28;20393;-86
2022/05/10 03:48:14;;;;;;;15.65;7.40;;;;;;;;;;4965527;28;20030;-86
2022/05/10 03:50:40;;;;;;;21.60;7.63;;;;;;;;;;4970068;28;20041;-85
2022/05/10 03:53:06;;;;;;;26.73;6.95;;;;;;;;;;4968752;28;20385;-86
2022/05/10 03:55:39;;;;;;;17.40;7.28;;;;;;;;;;4984294;28;20525;-86
2022/05/10 03:58:05;;;;;;;17.20;7.13;;;;;;;;;;4957589;28;20058;-87
2022/05/10 04:00:32;;;;;;;20.92;7.53;;;;;;;;;;4965527;28;20068;-87
2022/05/10 04:02:58;;;;;;;15.48;7.15;;;;;;;;;;4957282;28;20041;-86
2022/05/10 04:05:25;;;;;;;20.80;7.97;;;;;;;;;;4968115;28;20037;-86
2022/05/10 04:07:51;;;;;;;20.08;7.72;;;;;;;;;;4962425;28;20881;-87
2022/05/10 04:10:18;;;;;;;17.27;8.20;;;;;;;;;;4984495;28;20433;-87
2022/05/10 04:12:44;;;;;;;21.02;8.88;;;;;;;;;;4983653;28;20144;-87
2022/05/10 04:15:12;;;;;;;14.77;7.05;;;;;;;;;;4969120;28;20030;-87
2022/05/10 04:17:38;;;;;;;18.75;6.82;;;;;;;;;;4961905;28;20030;-87
2022/05/10 04:20:08;;;;;;;21.35;7.85;;;;;;;;;;4983309;28;20543;-86
2022/05/10 04:22:35;;;;;;;23.02;7.80;;;;;;;;;;4960412;28;20151;-86
2022/05/10 04:25:01;;;;;;;19.42;6.90;;;;;;;;;;4964411;28;20023;-86
2022/05/10 04:27:28;;;;;;;26.27;7.47;;;;;;;;;;4960077;28;20042;-86
2022/05/10 04:29:54;;;;;;;16.70;7.30;;;;;;;;;;4956689;28;20393;-86
2022/05/10 04:32:20;;;;;;;29.95;7.80;;;;;;;;;;4967284;28;20022;-86
2022/05/10 04:34:46;;;;;;;17.50;7.65;;;;;;;;;;4961659;28;20164;-86
2022/05/10 04:37:12;;;;;;;14.60;6.78;;;;;;;;;;4954485;28;20129;-86
2022/05/10 04:42:23;;;;;;;17.52;8.23;;;;;;;;;;4977035;28;20061;-87
2022/05/10 04:44:49;;;;;;;19.00;7.95;;;;;;;;;;4966722;28;20022;-86
2022/05/10 04:47:15;;;;;;;18.70;7.75;;;;;;;;;;4967354;28;20093;-86
2022/05/10 04:49:41;;;;;;;15.70;7.25;;;;;;;;;;4964309;28;20477;-86
2022/05/10 04:52:07;;;;;;;20.27;6.85;;;;;;;;;;4963336;28;20492;-86
2022/05/10 04:54:40;;;;;;;24.15;7.63;;;;;;;;;;4961035;28;20041;-87
2022/05/10 04:57:06;;;;;;;23.75;8.07;;;;;;;;;;4957872;28;20042;-86
2022/05/10 04:59:32;;;;;;;18.50;8.10;;;;;;;;;;4963941;28;20467;-86
2022/05/10 05:01:58;;;;;;;14.98;8.07;;;;;;;;;;4964477;28;20065;-86
2022/05/10 05:04:24;;;;;;;24.88;9.48;;;;;;;;;;4958971;28;20053;-86
2022/05/10 05:06:51;;;;;;;17.60;7.50;;;;;;;;;;4978739;28;20025;-85
2022/05/10 05:09:17;;;;;;;28.33;8.20;;;;;;;;;;4967254;28;20018;-85
2022/05/10 05:11:43;;;;;;;23.20;7.10;;;;;;;;;;4966740;28;20039;-86
2022/05/10 05:14:10;;;;;;;22.23;8.60;;;;;;;;;;4962961;28;20030;-86
2022/05/10 05:16:36;;;;;;;20.63;7.50;;;;;;;;;;4963880;28;20117;-86
2022/05/10 05:19:02;;;;;;;16.83;8.63;;;;;;;;;;4962442;28;20124;-86
2022/05/10 05:21:29;;;;;;;24.25;7.72;;;;;;;;;;4963991;28;20460;-86
2022/05/10 05:23:55;;;;;;;26.10;7.95;;;;;;;;;;4981109;28;20445;-86
2022/05/10 05:26:22;;;;;;;18.20;8.73;;;;;;;;;;4963799;28;20397;-86
2022/05/10 05:28:48;;;;;;;18.30;8.82;;;;;;;;;;4983402;28;20617;-86
2022/05/10 05:31:15;;;;;;;20.75;8.27;;;;;;;;;;4958135;28;20430;-87
2022/05/10 05:33:41;;;;;;;23.38;8.82;;;;;;;;;;4959304;28;20034;-87
2022/05/10 05:36:07;;;;;;;19.23;8.15;;;;;;;;;;4957456;28;20056;-87
2022/05/10 05:38:33;;;;;;;26.10;8.75;;;;;;;;;;4964656;28;20117;-87
2022/05/10 05:40:59;;;;;;;25.65;8.48;;;;;;;;;;4962960;28;20079;-86
2022/05/10 05:43:25;;;;;;;16.92;8.18;;;;;;;;;;4976186;28;20058;-86
2022/05/10 05:45:52;;;;;;;21.10;8.88;;;;;;;;;;4961484;28;20023;-85
2022/05/10 05:48:18;;;;;;;22.27;7.85;;;;;;;;;;4962835;28;20018;-87
2022/05/10 05:50:44;;;;;;;21.33;7.68;;;;;;;;;;4960895;28;20036;-87
2022/05/10 05:53:10;;;;;;;19.13;8.25;;;;;;;;;;4963381;28;20505;-87
2022/05/10 05:55:36;;;;;;;23.33;9.10;;;;;;;;;;4969587;28;20104;-86
2022/05/10 05:58:03;;;;;;;16.23;7.40;;;;;;;;;;4958101;28;20030;-87
2022/05/10 06:00:30;;;;;;;19.98;8.27;;;;;;;;;;4964604;28;20038;-86
2022/05/10 06:02:56;;;;;;;21.05;8.35;;;;;;;;;;4966253;28;20076;-86
2022/05/10 06:05:23;;;;;;;22.33;8.70;;;;;;;;;;4985308;28;20030;-88
2022/05/10 06:07:49;;;;;;;21.48;8.30;;;;;;;;;;4955471;28;20190;-85
2022/05/10 06:10:15;;;;;;;21.05;8.20;;;;;;;;;;4967509;28;20532;-86
2022/05/10 06:12:41;;;;;;;16.52;7.47;;;;;;;;;;4968675;28;20038;-87
2022/05/10 06:15:11;;;;;;;15.35;8.15;;;;;;;;;;4971373;28;20035;-87
2022/05/10 06:17:38;;;;;;;18.33;7.60;;;;;;;;;;4979931;28;20121;-86
2022/05/10 06:20:06;;;;;;;17.95;7.07;;;;;;;;;;4954767;28;20114;-85
2022/05/10 06:22:32;;;;;;;16.55;7.65;;;;;;;;;;4961579;28;20034;-86
2022/05/10 06:24:58;;;;;;;17.63;8.30;;;;;;;;;;4966633;28;20556;-86
2022/05/10 06:27:24;;;;;;;14.50;7.10;;;;;;;;;;4965001;28;20085;-87
2022/05/10 06:29:50;;;;;;;13.48;7.55;;;;;;;;;;4961033;28;20054;-87
2022/05/10 06:32:20;;;;;;;19.85;7.70;;;;;;;;;;4967701;28;20104;-87
2022/05/10 06:34:46;;;;;;;20.60;6.53;;;;;;;;;;4965354;28;20721;-87
2022/05/10 06:38:16;;;;;;;17.02;6.43;;;;;;;;;;4980488;28;20030;-87
2022/05/10 06:40:04;;;;;;;23.63;6.75;;;;;;;;;;4983165;28;20031;-86
2022/05/10 06:42:31;;;;;;;16.30;7.72;;;;;;;;;;4991104;28;20027;-87
2022/05/10 06:44:57;;;;;;;16.30;6.80;;;;;;;;;;4972226;28;20038;-87
2022/05/10 06:47:23;;;;;;;16.17;8.25;;;;;;;;;;4970853;28;20022;-87
2022/05/10 06:49:49;;;;;;;13.75;7.50;;;;;;;;;;4969795;28;20023;-87
2022/05/10 06:52:19;;;;;;;17.90;5.75;;;;;;;;;;4969842;28;20063;-86
2022/05/10 06:54:45;;;;;;;14.40;7.30;;;;;;;;;;4964723;28;20437;-87
2022/05/10 06:57:11;;;;;;;15.90;6.72;;;;;;;;;;4973889;28;20124;-87
2022/05/10 06:59:37;;;;;;;20.33;6.88;;;;;;;;;;4983588;28;20482;-87
2022/05/10 07:02:03;;;;;;;16.70;5.65;;;;;;;;;;4967440;28;20621;-87
2022/05/10 07:04:29;;;;;;;9.52;5.72;;;;;;;;;;4966088;28;20402;-86
2022/05/10 07:06:55;;;;;;;21.38;6.10;;;;;;;;;;4962205;28;20139;-87
2022/05/10 07:09:21;;;;;;;11.60;5.57;;;;;;;;;;4960335;28;20022;-87
2022/05/10 07:11:47;;;;;;;10.65;5.22;;;;;;;;;;4971755;28;20094;-87
2022/05/10 07:14:14;;;;;;;14.85;5.40;;;;;;;;;;4966765;28;20042;-87
2022/05/10 07:16:40;;;;;;;7.25;4.35;;;;;;;;;;4964913;28;20516;-87
2022/05/10 07:19:12;;;;;;;14.30;5.60;;;;;;;;;;4966893;28;20030;-88
2022/05/10 07:21:38;;;;;;;11.48;6.10;;;;;;;;;;4967195;28;20088;-88
2022/05/10 07:24:04;;;;;;;10.20;4.95;;;;;;;;;;4967423;28;20045;-87
2022/05/10 07:26:31;;;;;;;10.57;5.00;;;;;;;;;;4965495;28;20019;-87
2022/05/10 07:28:57;;;;;;;7.65;4.50;;;;;;;;;;4962373;28;20026;-87
2022/05/10 07:31:23;;;;;;;22.67;5.28;;;;;;;;;;4984352;28;20540;-87
2022/05/10 07:33:49;;;;;;;21.45;6.95;;;;;;;;;;4959595;28;20037;-88
2022/05/10 07:36:24;;;;;;;13.32;5.60;;;;;;;;;;4980696;28;20385;-87
2022/05/10 07:38:50;;;;;;;12.02;5.22;;;;;;;;;;4964215;28;20746;-87
2022/05/10 07:41:22;;;;;;;13.07;5.35;;;;;;;;;;4967823;28;20041;-87
2022/05/10 07:43:49;;;;;;;13.40;5.20;;;;;;;;;;4969134;28;20104;-87
2022/05/10 07:46:15;;;;;;;17.67;6.03;;;;;;;;;;4982197;28;20019;-87
2022/05/10 07:48:41;;;;;;;8.77;4.70;;;;;;;;;;4981584;28;20437;-87
2022/05/10 07:51:07;;;;;;;11.88;5.65;;;;;;;;;;4965186;28;20030;-86
2022/05/10 07:53:35;;;;;;;14.90;5.45;;;;;;;;;;4979531;28;20030;-87
2022/05/10 07:56:03;;;;;;;14.80;4.63;;;;;;;;;;4958388;28;20084;-87
2022/05/10 07:58:29;;;;;;;13.88;5.00;;;;;;;;;;4967571;28;20069;-88
2022/05/10 08:00:55;;;;;;;15.30;5.45;;;;;;;;;;4969613;28;20081;-87
2022/05/10 08:03:23;;;;;;;10.70;5.13;;;;;;;;;;4961977;28;20042;-87
2022/05/10 08:05:50;;;;;;;16.08;7.18;;;;;;;;;;4967616;28;20511;-88
2022/05/10 08:08:17;;;;;;;17.20;6.18;;;;;;;;;;4969661;28;20494;-87
2022/05/10 08:10:44;;;;;;;13.30;4.85;;;;;;;;;;4960115;28;20701;-87
2022/05/10 08:13:13;;;;;;;23.35;4.55;;;;;;;;;;4961451;28;20026;-87
2022/05/10 08:15:40;;;;;;;12.85;4.63;;;;;;;;;;4959254;28;20041;-87
2022/05/10 08:18:07;;;;;;;7.20;4.00;;;;;;;;;;4974948;28;20110;-87
2022/05/10 08:20:33;;;;;;;11.88;4.03;;;;;;;;;;4983001;28;20140;-87
2022/05/10 08:22:59;;;;;;;10.57;3.75;;;;;;;;;;4966269;28;20056;-88
2022/05/10 08:25:25;;;;;;;7.50;4.13;;;;;;;;;;4983734;28;20027;-86
2022/05/10 08:27:51;;;;;;;5.05;2.95;;;;;;;;;;4966472;28;20634;-87
2022/05/10 08:30:17;;;;;;;12.85;5.43;;;;;;;;;;4961393;28;20039;-87
2022/05/10 08:32:44;;;;;;;9.80;3.88;;;;;;;;;;4981503;28;20586;-87
2022/05/10 08:35:10;;;;;;;14.35;4.47;;;;;;;;;;4981320;28;20035;-87
2022/05/10 08:37:37;;;;;;;10.20;3.72;;;;;;;;;;4960913;28;20486;-87
2022/05/10 08:40:07;;;;;;;15.55;4.00;;;;;;;;;;4962968;28;20697;-86
2022/05/10 08:42:34;;;;;;;9.18;4.40;;;;;;;;;;4962971;28;20057;-87
2022/05/10 08:45:03;;;;;;;10.50;3.67;;;;;;;;;;4980186;28;20026;-87
2022/05/10 08:47:29;;;;;;;12.55;5.28;;;;;;;;;;4981119;28;20098;-88
2022/05/10 08:49:59;;;;;;;10.88;3.65;;;;;;;;;;4981130;28;20109;-86
2022/05/10 08:52:30;;;;;;;12.45;3.88;;;;;;;;;;4971647;28;20058;-87
2022/05/10 08:54:56;;;;;;;10.18;3.55;;;;;;;;;;4981504;28;20080;-87
2022/05/10 08:57:41;;;;;;;14.30;3.88;;;;;;;;;;4966117;28;20415;-87
2022/05/10 09:00:07;;;;;;;8.30;4.32;;;;;;;;;;4986251;28;20038;-86
2022/05/10 09:02:40;;;;;;;13.48;4.18;;;;;;;;;;4966794;28;20034;-86
2022/05/10 09:05:09;;;;;;;8.07;3.83;;;;;;;;;;4965660;28;20053;-84
2022/05/10 09:07:39;;;;;;;11.55;4.30;;;;;;;;;;4965360;28;20026;-84
2022/05/10 09:10:05;;;;;;;8.80;4.00;;;;;;;;;;4950338;28;20836;-85
2022/05/10 09:12:36;;;;;;;12.60;4.20;;;;;;;;;;4961010;28;20026;-84
2022/05/10 09:15:06;;;;;;;9.95;3.90;;;;;;;;;;4979868;28;20035;-84
2022/05/10 09:17:36;;;;;;;12.07;4.05;;;;;;;;;;4960954;28;20585;-85
2022/05/10 09:20:03;;;;;;;9.73;3.85;;;;;;;;;;4966119;28;20046;-85
2022/05/10 09:22:36;;;;;;;13.40;4.78;;;;;;;;;;4968634;28;20149;-84
2022/05/10 09:25:09;;;;;;;11.13;4.30;;;;;;;;;;4968850;28;20134;-86
2022/05/10 09:27:35;;;;;;;7.10;3.28;;;;;;;;;;4966698;28;20034;-87
2022/05/10 09:30:01;;;;;;;5.82;3.25;;;;;;;;;;4964675;28;20027;-85
2022/05/10 09:35:21;;;;;;;15.63;3.88;;;;;;;;;;4983345;28;20122;-87
2022/05/10 09:37:54;;;;;;;10.93;4.50;;;;;;;;;;4982057;28;20035;-88
2022/05/10 09:40:32;;;;;;;9.38;5.68;;;;;;;;;;4981910;28;20033;-85
2022/05/10 09:43:37;;;;;;;11.13;4.68;;;;;;;;;;4966223;28;20089;-85
2022/05/10 09:46:11;;;;;;;10.23;4.50;;;;;;;;;;4954177;28;20614;-85
2022/05/10 09:48:37;;;;;;;16.02;3.80;;;;;;;;;;4981155;28;20030;-84
2022/05/10 09:51:22;;;;;;;11.52;3.78;;;;;;;;;;4964863;28;20112;-85
2022/05/10 09:53:48;;;;;;;6.20;3.77;;;;;;;;;;4967155;28;20042;-84
2022/05/10 09:56:23;;;;;;;9.32;4.30;;;;;;;;;;4981123;28;20681;-85
2022/05/10 09:58:55;;;;;;;19.38;4.75;;;;;;;;;;4966589;28;20041;-85
2022/05/10 10:01:38;;;;;;;11.95;4.30;;;;;;;;;;4960281;28;20045;-85
2022/05/10 10:04:17;;;;;;;12.38;5.45;;;;;;;;;;4954485;28;20037;-85
2022/05/10 10:06:43;;;;;;;15.25;4.72;;;;;;;;;;4965887;28;20078;-84
2022/05/10 10:09:09;;;;;;;7.30;4.57;;;;;;;;;;4964038;28;20041;-84
2022/05/10 10:11:38;;;;;;;9.40;4.20;;;;;;;;;;4967772;28;20038;-85
2022/05/10 10:14:06;;;;;;;11.32;4.25;;;;;;;;;;4966283;28;20027;-85
2022/05/10 10:16:50;;;;;;;10.18;3.97;;;;;;;;;;4961144;28;20287;-85
2022/05/10 10:19:19;;;;;;;11.45;4.32;;;;;;;;;;4980245;28;20732;-85
2022/05/10 10:21:55;;;;;;;13.55;4.63;;;;;;;;;;4968873;28;20544;-85
2022/05/10 10:24:39;;;;;;;16.98;4.78;;;;;;;;;;4956750;28;20674;-86
2022/05/10 10:27:09;;;;;;;8.77;4.30;;;;;;;;;;4955893;28;20042;-85
2022/05/10 10:29:35;;;;;;;15.90;5.50;;;;;;;;;;4961018;28;20049;-85
2022/05/10 10:32:21;;;;;;;25.50;5.57;;;;;;;;;;4955469;28;20121;-86
2022/05/10 10:35:02;;;;;;;13.45;4.80;;;;;;;;;;4966225;28;20046;-86
2022/05/10 10:37:49;;;;;;;12.00;4.93;;;;;;;;;;4965939;28;20034;-86
2022/05/10 10:40:35;;;;;;;13.65;5.68;;;;;;;;;;4980432;28;20039;-86
2022/05/10 10:43:01;;;;;;;11.18;4.95;;;;;;;;;;4977547;28;20389;-85
2022/05/10 10:45:33;;;;;;;11.32;5.38;;;;;;;;;;4955187;28;20038;-84
2022/05/10 10:47:59;;;;;;;14.98;5.65;;;;;;;;;;4981430;28;20101;-84
2022/05/10 10:50:27;;;;;;;17.88;5.43;;;;;;;;;;4958704;28;20102;-84
2022/05/10 10:52:54;;;;;;;19.35;5.30;;;;;;;;;;4960909;28;20050;-85
2022/05/10 10:55:53;;;;;;;15.95;6.22;;;;;;;;;;4957402;28;20523;-85
2022/05/10 10:58:26;;;;;;;17.08;6.68;;;;;;;;;;4959507;28;20027;-85
2022/05/10 11:01:00;;;;;;;22.75;5.72;;;;;;;;;;4966281;28;20504;-87
2022/05/10 11:03:31;;;;;;;17.00;5.35;;;;;;;;;;4984809;28;20097;-86
2022/05/10 11:06:07;;;;;;;23.25;7.47;;;;;;;;;;4985896;28;20203;-87
2022/05/10 11:08:53;;;;;;;13.45;5.03;;;;;;;;;;4969066;28;20528;-86
2022/05/10 11:11:19;;;;;;;;;;;;;;;;;;4960899;28;20581;-87
2022/05/10 11:14:07;;;;;;;12.63;6.15;;;;;;;;;;4966992;28;19914;-88
2022/05/10 11:16:34;;;;;;;14.38;5.93;;;;;;;;;;4959197;28;20460;-85
2022/05/10 11:19:03;;;;;;;16.02;4.85;;;;;;;;;;4955141;28;20741;-86
2022/05/10 11:21:29;;;;;;;13.23;3.45;;;;;;;;;;4951839;28;20030;-86
2022/05/10 11:24:07;;;;;;;25.30;4.45;;;;;;;;;;4960802;28;20047;-87
2022/05/10 11:26:59;;;;;;;14.00;1.95;;;;;;;;;;4956372;28;20147;-86
2022/05/10 11:29:32;;;;;;;8.52;3.10;;;;;;;;;;4961765;28;20513;-86
2022/05/10 11:32:21;;;;;;;10.45;3.75;;;;;;;;;;4981828;28;20478;-86
2022/05/10 11:35:06;;;;;;;12.48;3.30;;;;;;;;;;4962391;28;20049;-87
2022/05/10 11:37:35;;;;;;;7.30;3.38;;;;;;;;;;4967555;28;20039;-87
2022/05/10 11:40:11;;;;;;;9.07;3.03;;;;;;;;;;4965994;28;20037;-85
2022/05/10 11:42:56;;;;;;;5.55;2.90;;;;;;;;;;4960423;28;20092;-83
2022/05/10 11:45:38;;;;;;;27.77;4.75;;;;;;;;;;4953183;28;21456;-84
2022/05/10 11:48:03;;;;;;;12.60;3.70;;;;;;;;;;4965178;28;20042;-85
2022/05/10 11:50:38;;;;;;;12.23;3.03;;;;;;;;;;4957275;28;20614;-85
2022/05/10 11:53:07;;;;;;;10.57;3.93;;;;;;;;;;4963439;28;20140;-85
2022/05/10 11:56:00;;;;;;;25.60;4.68;;;;;;;;;;4979614;28;20413;-85
2022/05/10 11:58:27;;;;;;;14.82;4.05;;;;;;;;;;4981883;28;20678;-85
2022/05/10 12:01:00;;;;;;;32.88;5.55;;;;;;;;;;4984527;28;20474;-85
2022/05/10 12:03:45;;;;;;;17.25;4.97;;;;;;;;;;4957958;28;20078;-84
2022/05/10 12:06:31;;;;;;;17.55;4.28;;;;;;;;;;4966714;28;20045;-86
2022/05/10 12:08:59;;;;;;;14.07;4.25;;;;;;;;;;4965364;28;20414;-85
2022/05/10 12:11:31;;;;;;;28.15;6.30;;;;;;;;;;4965163;28;20053;-84
2022/05/10 12:22:21;;;;;;;12.50;5.80;;;;;;;;;;4983775;28;20482;-84
2022/05/10 12:24:52;;;;;;;21.33;7.03;;;;;;;;;;4963629;28;20116;-84
2022/05/10 12:27:31;;;;;;;18.90;6.55;;;;;;;;;;4955785;28;20042;-86
2022/05/10 12:29:57;;;;;;;23.25;5.95;;;;;;;;;;4980455;28;20026;-87
2022/05/10 12:32:29;;;;;;;16.02;6.40;;;;;;;;;;4983039;28;20385;-87
2022/05/10 12:34:56;;;;;;;8.15;4.53;;;;;;;;;;4967062;28;20093;-87
2022/05/10 12:37:27;;;;;;;15.77;5.43;;;;;;;;;;4976502;28;20213;-87
2022/05/10 12:40:01;;;;;;;9.88;4.20;;;;;;;;;;4971163;28;20038;-88
2022/05/10 12:42:46;;;;;;;18.38;6.15;;;;;;;;;;4967171;28;20034;-88
2022/05/10 12:45:28;;;;;;;9.82;4.82;;;;;;;;;;4961731;28;20030;-86
2022/05/10 12:48:00;;;;;;;9.07;4.93;;;;;;;;;;4965642;28;20023;-88
2022/05/10 12:50:35;;;;;;;13.45;4.75;;;;;;;;;;4962179;28;20481;-87
2022/05/10 12:53:01;;;;;;;10.25;4.47;;;;;;;;;;4957208;28;20170;-87
2022/05/10 12:55:29;;;;;;;22.13;4.63;;;;;;;;;;4960754;28;20514;-87
2022/05/10 12:58:16;;;;;;;12.30;4.15;;;;;;;;;;4962643;28;20070;-86
2022/05/10 13:00:44;;;;;;;6.40;3.95;;;;;;;;;;4963238;28;20058;-88
2022/05/10 13:03:12;;;;;;;8.23;2.75;;;;;;;;;;4961022;28;20038;-86
2022/05/10 13:05:58;;;;;;;13.05;3.58;;;;;;;;;;4967402;28;20405;-88
2022/05/10 13:08:42;;;;;;;10.13;3.17;;;;;;;;;;4959816;28;20034;-88
2022/05/10 13:11:09;;;;;;;12.23;3.00;;;;;;;;;;4964221;28;20069;-87
2022/05/10 13:13:37;;;;;;;21.83;3.38;;;;;;;;;;4953494;28;20062;-87
2022/05/10 13:16:04;;;;;;;18.25;3.75;;;;;;;;;;4963738;28;20146;-87
2022/05/10 13:18:30;;;;;;;14.50;3.40;;;;;;;;;;4962484;28;20037;-87
2022/05/10 13:20:58;;;;;;;5.20;2.03;;;;;;;;;;4962525;28;20038;-87
2022/05/10 13:23:28;;;;;;;13.57;2.97;;;;;;;;;;4961901;28;20035;-86
2022/05/10 13:25:55;;;;;;;11.55;2.38;;;;;;;;;;4963188;28;20038;-87
2022/05/10 13:28:25;;;;;;;8.23;2.33;;;;;;;;;;4964006;28;20057;-87
2022/05/10 13:30:56;;;;;;;4.57;2.17;;;;;;;;;;4961858;28;20160;-87
2022/05/10 13:33:24;;;;;;;9.35;2.83;;;;;;;;;;4962455;28;20098;-87
2022/05/10 13:35:55;;;;;;;16.10;2.40;;;;;;;;;;4978261;28;20489;-87
2022/05/10 13:38:26;;;;;;;15.48;2.17;;;;;;;;;;4953975;28;20027;-87
2022/05/10 13:41:03;;;;;;;9.93;2.58;;;;;;;;;;4978623;28;20041;-88
2022/05/10 13:43:33;;;;;;;6.28;2.13;;;;;;;;;;4968632;28;20061;-88
2022/05/10 13:46:01;;;;;;;6.25;1.70;;;;;;;;;;4963887;28;20037;-88
2022/05/10 13:48:29;;;;;;;9.18;2.40;;;;;;;;;;4962757;28;20137;-88
2022/05/10 13:50:57;;;;;;;11.40;2.10;;;;;;;;;;4979868;28;20034;-87
2022/05/10 13:53:31;;;;;;;4.75;1.70;;;;;;;;;;4963013;28;20116;-88
2022/05/10 13:55:59;;;;;;;7.53;1.30;;;;;;;;;;4964613;28;20624;-88
2022/05/10 13:58:41;;;;;;;5.65;1.60;;;;;;;;;;4963086;28;20045;-88
2022/05/10 14:01:09;;;;;;;16.80;1.63;;;;;;;;;;4966383;28;20693;-88
2022/05/10 14:03:38;;;;;;;13.40;1.60;;;;;;;;;;4960574;28;20061;-88
2022/05/10 14:06:06;;;;;;;5.32;1.20;;;;;;;;;;4957862;28;20026;-87
2022/05/10 14:08:33;;;;;;;9.23;1.45;;;;;;;;;;4981169;28;20066;-88
2022/05/10 14:11:08;;;;;;;4.93;1.13;;;;;;;;;;4978168;28;20033;-84
2022/05/10 14:13:35;;;;;;;4.10;1.02;;;;;;;;;;4968302;28;20433;-85
2022/05/10 14:16:01;;;;;;;2.20;1.08;;;;;;;;;;4965494;28;20050;-85
2022/05/10 14:18:29;;;;;;;1.30;0.90;;;;;;;;;;4962592;28;20055;-85
2022/05/10 14:21:02;;;;;;;4.47;0.82;;;;;;;;;;4962991;28;20824;-86
2022/05/10 14:23:29;;;;;;;4.90;1.65;;;;;;;;;;4973143;28;20031;-86
2022/05/10 14:26:02;;;;;;;3.15;1.17;;;;;;;;;;4974443;28;20034;-86
2022/05/10 14:28:33;;;;;;;6.72;1.25;;;;;;;;;;4961707;28;22244;-86
2022/05/10 14:31:09;;;;;;;4.30;1.05;;;;;;;;;;4957732;28;20022;-86
2022/05/10 14:33:37;;;;;;;6.45;1.38;;;;;;;;;;4965630;28;20045;-85
2022/05/10 14:36:05;;;;;;;6.97;1.23;;;;;;;;;;4964205;28;20030;-85
2022/05/10 14:38:33;;;;;;;2.65;1.33;;;;;;;;;;4971776;28;20038;-89
2022/05/10 14:40:59;;;;;;;5.95;1.25;;;;;;;;;;4957493;28;20053;-87
2022/05/10 14:43:25;;;;;;;4.00;1.48;;;;;;;;;;4975937;28;20038;-87
2022/05/10 14:45:52;;;;;;;6.78;1.80;;;;;;;;;;4980797;28;20113;-87
2022/05/10 14:48:51;;;;;;;5.30;1.45;;;;;;;;;;4956709;28;20105;-87
2022/05/10 14:51:54;;;;;;;5.97;1.23;;;;;;;;;;4921732;28;20030;-87
2022/05/10 14:54:32;;;;;;;6.57;1.40;;;;;;;;;;4853158;29;20334;-85
2022/05/10 14:57:00;;;;;;;3.78;1.20;;;;;;;;;;4967771;28;20134;-85
2022/05/10 14:59:50;;;;;;;7.88;1.60;;;;;;;;;;4980279;28;20045;-85
2022/05/10 15:02:23;;;;;;;4.57;2.40;;;;;;;;;;4972231;28;20042;-85
2022/05/10 15:04:49;;;;;;;3.83;1.60;;;;;;;;;;4963918;28;20041;-85
2022/05/10 15:07:15;;;;;;;5.22;1.38;;;;;;;;;;4990878;28;20408;-86
2022/05/10 15:09:41;;;;;;;4.25;1.40;;;;;;;;;;4981833;28;20481;-85